sensor_id;sensor_type;location;lat;lon;timestamp;pressure;altitude;pressure_sealevel;temperature;humidity
29247;BME280;16272;48.188;9.964;2023-04-23T00:01:25;95203.94;;;13.06;71.17
29247;BME280;16272;48.188;9.964;2023-04-23T00:03:56;95201.09;;;13.08;71.58
29247;BME280;16272;48.188;9.964;2023-04-23T00:06:22;95210.72;;;12.94;71.59
29247;BME280;16272;48.188;9.964;2023-04-23T00:08:52;95209.47;;;12.82;71.65
29247;BME280;16272;48.188;9.964;2023-04-23T00:11:18;95212.97;;;12.67;71.89
29247;BME280;16272;48.188;9.964;2023-04-23T00:13:44;95204.72;;;12.54;73.33
29247;BME280;16272;48.188;9.964;2023-04-23T00:16:12;95212.28;;;12.65;72.66
29247;BME280;16272;48.188;9.964;2023-04-23T00:18:37;95212.75;;;12.69;71.93
29247;BME280;16272;48.188;9.964;2023-04-23T00:21:03;95206.66;;;12.98;71.50
29247;BME280;16272;48.188;9.964;2023-04-23T00:23:28;95205.94;;;13.04;70.72
29247;BME280;16272;48.188;9.964;2023-04-23T00:25:54;95197.88;;;13.13;67.82
29247;BME280;16272;48.188;9.964;2023-04-23T00:28:19;95206.03;;;12.96;70.76
29247;BME280;16272;48.188;9.964;2023-04-23T00:30:45;95207.25;;;12.71;72.56
29247;BME280;16272;48.188;9.964;2023-04-23T00:33:10;95204.59;;;12.71;71.55
29247;BME280;16272;48.188;9.964;2023-04-23T00:35:35;95195.47;;;12.65;71.22
29247;BME280;16272;48.188;9.964;2023-04-23T00:38:01;95201.75;;;12.72;70.23
29247;BME280;16272;48.188;9.964;2023-04-23T00:40:26;95201.88;;;12.56;71.66
29247;BME280;16272;48.188;9.964;2023-04-23T00:42:51;95194.47;;;12.43;71.92
29247;BME280;16272;48.188;9.964;2023-04-23T00:45:18;95201.53;;;12.36;72.12
29247;BME280;16272;48.188;9.964;2023-04-23T00:47:45;95192.59;;;12.28;73.04
29247;BME280;16272;48.188;9.964;2023-04-23T00:50:14;95201.53;;;12.12;73.42
29247;BME280;16272;48.188;9.964;2023-04-23T00:52:39;95202.78;;;12.25;73.08
29247;BME280;16272;48.188;9.964;2023-04-23T00:55:06;95194.69;;;12.41;71.32
29247;BME280;16272;48.188;9.964;2023-04-23T00:57:32;95193.47;;;12.44;70.05
29247;BME280;16272;48.188;9.964;2023-04-23T00:59:58;95201.63;;;12.65;69.14
29247;BME280;16272;48.188;9.964;2023-04-23T01:02:26;95210.09;;;12.69;68.99
29247;BME280;16272;48.188;9.964;2023-04-23T01:04:52;95210.88;;;12.78;69.68
29247;BME280;16272;48.188;9.964;2023-04-23T01:07:20;95207.19;;;12.56;70.75
29247;BME280;16272;48.188;9.964;2023-04-23T01:09:45;95209.97;;;12.62;69.75
29247;BME280;16272;48.188;9.964;2023-04-23T01:12:12;95212.00;;;12.60;70.42
29247;BME280;16272;48.188;9.964;2023-04-23T01:14:40;95214.50;;;12.62;70.25
29247;BME280;16272;48.188;9.964;2023-04-23T01:17:06;95221.09;;;12.43;71.67
29247;BME280;16272;48.188;9.964;2023-04-23T01:19:33;95213.25;;;12.49;71.29
29247;BME280;16272;48.188;9.964;2023-04-23T01:21:59;95220.56;;;12.47;72.04
29247;BME280;16272;48.188;9.964;2023-04-23T01:24:26;95221.66;;;12.61;70.68
29247;BME280;16272;48.188;9.964;2023-04-23T01:26:53;95215.00;;;12.57;70.34
29247;BME280;16272;48.188;9.964;2023-04-23T01:29:19;95225.81;;;12.79;69.66
29247;BME280;16272;48.188;9.964;2023-04-23T01:31:45;95214.53;;;12.77;69.92
29247;BME280;16272;48.188;9.964;2023-04-23T01:34:11;95217.91;;;12.71;70.04
29247;BME280;16272;48.188;9.964;2023-04-23T01:36:37;95216.44;;;12.45;70.90
29247;BME280;16272;48.188;9.964;2023-04-23T01:39:04;95233.59;;;12.19;73.03
29247;BME280;16272;48.188;9.964;2023-04-23T01:41:31;95225.88;;;12.01;73.98
29247;BME280;16272;48.188;9.964;2023-04-23T01:43:58;95235.31;;;12.12;73.57
29247;BME280;16272;48.188;9.964;2023-04-23T01:46:24;95225.66;;;12.11;72.72
29247;BME280;16272;48.188;9.964;2023-04-23T01:48:50;95236.22;;;11.96;75.02
29247;BME280;16272;48.188;9.964;2023-04-23T01:51:24;95238.19;;;12.02;74.21
29247;BME280;16272;48.188;9.964;2023-04-23T01:53:50;95236.88;;;12.21;74.48
29247;BME280;16272;48.188;9.964;2023-04-23T01:56:15;95239.25;;;12.16;73.63
29247;BME280;16272;48.188;9.964;2023-04-23T01:58:43;95244.53;;;12.24;74.24
29247;BME280;16272;48.188;9.964;2023-04-23T02:01:09;95247.97;;;12.02;75.28
29247;BME280;16272;48.188;9.964;2023-04-23T02:03:34;95252.53;;;12.24;74.32
29247;BME280;16272;48.188;9.964;2023-04-23T02:05:59;95256.44;;;12.13;74.74
29247;BME280;16272;48.188;9.964;2023-04-23T02:08:26;95255.22;;;12.16;75.49
29247;BME280;16272;48.188;9.964;2023-04-23T02:10:51;95259.31;;;12.04;76.31
29247;BME280;16272;48.188;9.964;2023-04-23T02:13:17;95261.22;;;11.70;77.15
29247;BME280;16272;48.188;9.964;2023-04-23T02:15:42;95259.75;;;11.68;77.10
29247;BME280;16272;48.188;9.964;2023-04-23T02:18:07;95266.75;;;12.08;75.80
29247;BME280;16272;48.188;9.964;2023-04-23T02:20:33;95268.34;;;11.78;77.07
29247;BME280;16272;48.188;9.964;2023-04-23T02:23:02;95269.63;;;11.99;77.57
29247;BME280;16272;48.188;9.964;2023-04-23T02:25:28;95266.56;;;12.10;77.45
29247;BME280;16272;48.188;9.964;2023-04-23T02:27:54;95279.19;;;12.16;77.12
29247;BME280;16272;48.188;9.964;2023-04-23T02:30:21;95277.22;;;12.10;76.77
29247;BME280;16272;48.188;9.964;2023-04-23T02:32:47;95280.50;;;12.20;76.04
29247;BME280;16272;48.188;9.964;2023-04-23T02:35:12;95281.59;;;12.03;77.13
29247;BME280;16272;48.188;9.964;2023-04-23T02:37:37;95285.78;;;12.28;76.00
29247;BME280;16272;48.188;9.964;2023-04-23T02:40:04;95289.34;;;12.12;76.40
29247;BME280;16272;48.188;9.964;2023-04-23T02:42:30;95285.63;;;11.90;78.64
29247;BME280;16272;48.188;9.964;2023-04-23T02:44:55;95281.69;;;11.70;79.74
29247;BME280;16272;48.188;9.964;2023-04-23T02:47:28;95280.81;;;11.86;78.52
29247;BME280;16272;48.188;9.964;2023-04-23T02:49:54;95284.16;;;12.19;77.76
29247;BME280;16272;48.188;9.964;2023-04-23T02:52:19;95288.06;;;12.40;76.75
29247;BME280;16272;48.188;9.964;2023-04-23T02:54:45;95285.97;;;12.27;75.51
29247;BME280;16272;48.188;9.964;2023-04-23T02:57:10;95287.13;;;11.93;77.63
29247;BME280;16272;48.188;9.964;2023-04-23T02:59:38;95297.59;;;11.86;77.65
29247;BME280;16272;48.188;9.964;2023-04-23T03:02:04;95292.09;;;11.96;77.92
29247;BME280;16272;48.188;9.964;2023-04-23T03:04:29;95290.59;;;11.93;79.65
29247;BME280;16272;48.188;9.964;2023-04-23T03:06:54;95285.91;;;12.35;76.51
29247;BME280;16272;48.188;9.964;2023-04-23T03:09:20;95285.75;;;12.05;77.77
29247;BME280;16272;48.188;9.964;2023-04-23T03:11:46;95285.09;;;11.95;78.62
29247;BME280;16272;48.188;9.964;2023-04-23T03:14:12;95297.59;;;11.94;79.00
29247;BME280;16272;48.188;9.964;2023-04-23T03:16:37;95301.63;;;11.66;79.21
29247;BME280;16272;48.188;9.964;2023-04-23T03:19:04;95300.69;;;12.06;77.71
29247;BME280;16272;48.188;9.964;2023-04-23T03:21:30;95306.50;;;12.10;77.87
29247;BME280;16272;48.188;9.964;2023-04-23T03:23:55;95300.28;;;11.78;78.88
29247;BME280;16272;48.188;9.964;2023-04-23T03:26:21;95297.91;;;12.00;78.36
29247;BME280;16272;48.188;9.964;2023-04-23T03:28:46;95305.56;;;11.94;78.71
29247;BME280;16272;48.188;9.964;2023-04-23T03:31:11;95298.03;;;12.06;77.48
29247;BME280;16272;48.188;9.964;2023-04-23T03:33:37;95299.53;;;12.09;77.45
29247;BME280;16272;48.188;9.964;2023-04-23T03:36:06;95308.78;;;12.21;78.20
29247;BME280;16272;48.188;9.964;2023-04-23T03:38:32;95301.13;;;12.18;77.11
29247;BME280;16272;48.188;9.964;2023-04-23T03:41:09;95301.13;;;12.18;77.00
29247;BME280;16272;48.188;9.964;2023-04-23T03:43:35;95301.56;;;11.82;77.86
29247;BME280;16272;48.188;9.964;2023-04-23T03:46:00;95302.97;;;11.70;80.37
29247;BME280;16272;48.188;9.964;2023-04-23T03:48:25;95309.78;;;12.20;77.11
29247;BME280;16272;48.188;9.964;2023-04-23T03:50:51;95304.72;;;12.02;77.78
29247;BME280;16272;48.188;9.964;2023-04-23T03:53:24;95316.84;;;12.05;77.64
29247;BME280;16272;48.188;9.964;2023-04-23T03:55:49;95306.78;;;12.23;76.85
29247;BME280;16272;48.188;9.964;2023-04-23T03:58:31;95310.63;;;12.21;76.94
29247;BME280;16272;48.188;9.964;2023-04-23T04:00:56;95298.09;;;11.82;78.84
29247;BME280;16272;48.188;9.964;2023-04-23T04:03:22;95298.91;;;11.82;78.55
29247;BME280;16272;48.188;9.964;2023-04-23T04:05:48;95301.06;;;11.87;78.72
29247;BME280;16272;48.188;9.964;2023-04-23T04:08:13;95300.53;;;12.08;77.77
29247;BME280;16272;48.188;9.964;2023-04-23T04:10:38;95298.91;;;11.99;78.08
29247;BME280;16272;48.188;9.964;2023-04-23T04:13:05;95296.72;;;12.02;78.63
29247;BME280;16272;48.188;9.964;2023-04-23T04:15:30;95293.81;;;12.20;77.83
29247;BME280;16272;48.188;9.964;2023-04-23T04:17:57;95291.75;;;11.99;78.08
29247;BME280;16272;48.188;9.964;2023-04-23T04:20:23;95284.03;;;11.65;79.98
29247;BME280;16272;48.188;9.964;2023-04-23T04:22:50;95296.25;;;11.90;79.02
29247;BME280;16272;48.188;9.964;2023-04-23T04:25:15;95284.06;;;11.56;80.56
29247;BME280;16272;48.188;9.964;2023-04-23T04:27:40;95285.97;;;11.79;80.26
29247;BME280;16272;48.188;9.964;2023-04-23T04:30:07;95280.66;;;11.79;79.77
29247;BME280;16272;48.188;9.964;2023-04-23T04:32:33;95282.31;;;11.80;79.49
29247;BME280;16272;48.188;9.964;2023-04-23T04:34:58;95291.66;;;11.76;79.77
29247;BME280;16272;48.188;9.964;2023-04-23T04:37:23;95293.63;;;11.74;80.62
29247;BME280;16272;48.188;9.964;2023-04-23T04:39:49;95294.28;;;11.84;79.95
29247;BME280;16272;48.188;9.964;2023-04-23T04:42:15;95285.22;;;11.46;81.18
29247;BME280;16272;48.188;9.964;2023-04-23T04:44:42;95289.28;;;11.81;79.33
29247;BME280;16272;48.188;9.964;2023-04-23T04:47:07;95292.25;;;11.86;79.80
29247;BME280;16272;48.188;9.964;2023-04-23T04:49:33;95275.25;;;11.56;81.89
29247;BME280;16272;48.188;9.964;2023-04-23T04:51:58;95277.72;;;11.49;81.14
29247;BME280;16272;48.188;9.964;2023-04-23T04:54:23;95281.69;;;11.62;81.67
29247;BME280;16272;48.188;9.964;2023-04-23T04:56:48;95287.63;;;11.80;80.25
29247;BME280;16272;48.188;9.964;2023-04-23T04:59:14;95284.34;;;11.70;79.98
29247;BME280;16272;48.188;9.964;2023-04-23T05:01:48;95286.66;;;11.73;80.58
29247;BME280;16272;48.188;9.964;2023-04-23T05:04:14;95284.00;;;11.73;81.13
29247;BME280;16272;48.188;9.964;2023-04-23T05:06:39;95287.03;;;11.53;81.50
29247;BME280;16272;48.188;9.964;2023-04-23T05:09:21;95286.31;;;11.76;81.85
29247;BME280;16272;48.188;9.964;2023-04-23T05:11:49;95282.44;;;11.87;81.04
29247;BME280;16272;48.188;9.964;2023-04-23T05:14:14;95276.03;;;11.73;81.01
29247;BME280;16272;48.188;9.964;2023-04-23T05:16:43;95280.75;;;11.54;82.48
29247;BME280;16272;48.188;9.964;2023-04-23T05:19:08;95276.06;;;11.56;80.98
29247;BME280;16272;48.188;9.964;2023-04-23T05:21:34;95280.75;;;11.46;82.45
29247;BME280;16272;48.188;9.964;2023-04-23T05:23:59;95283.94;;;11.33;83.05
29247;BME280;16272;48.188;9.964;2023-04-23T05:26:24;95284.03;;;11.65;81.49
29247;BME280;16272;48.188;9.964;2023-04-23T05:28:56;95285.44;;;11.28;83.16
29247;BME280;16272;48.188;9.964;2023-04-23T05:31:21;95289.16;;;11.74;81.27
29247;BME280;16272;48.188;9.964;2023-04-23T05:33:46;95295.47;;;11.73;80.80
29247;BME280;16272;48.188;9.964;2023-04-23T05:36:19;95294.28;;;11.84;80.25
29247;BME280;16272;48.188;9.964;2023-04-23T05:38:45;95291.34;;;11.63;81.82
29247;BME280;16272;48.188;9.964;2023-04-23T05:41:11;95296.25;;;11.90;80.12
29247;BME280;16272;48.188;9.964;2023-04-23T05:43:36;95293.06;;;12.03;79.77
29247;BME280;16272;48.188;9.964;2023-04-23T05:46:01;95304.53;;;12.04;79.53
29247;BME280;16272;48.188;9.964;2023-04-23T05:48:28;95293.16;;;12.18;78.81
29247;BME280;16272;48.188;9.964;2023-04-23T05:50:54;95293.91;;;12.04;78.69
29247;BME280;16272;48.188;9.964;2023-04-23T05:53:30;95300.56;;;12.00;79.58
29247;BME280;16272;48.188;9.964;2023-04-23T05:55:56;95293.34;;;12.08;79.61
29247;BME280;16272;48.188;9.964;2023-04-23T05:58:22;95294.72;;;12.04;79.70
29247;BME280;16272;48.188;9.964;2023-04-23T06:00:54;95294.59;;;11.89;81.26
29247;BME280;16272;48.188;9.964;2023-04-23T06:03:19;95285.53;;;12.15;80.03
29247;BME280;16272;48.188;9.964;2023-04-23T06:05:45;95290.91;;;12.38;78.94
29247;BME280;16272;48.188;9.964;2023-04-23T06:08:10;95294.84;;;12.42;79.95
29247;BME280;16272;48.188;9.964;2023-04-23T06:10:35;95301.41;;;12.31;79.82
29247;BME280;16272;48.188;9.964;2023-04-23T06:13:01;95294.78;;;12.27;79.61
29247;BME280;16272;48.188;9.964;2023-04-23T06:15:26;95304.72;;;12.34;79.95
29247;BME280;16272;48.188;9.964;2023-04-23T06:17:51;95306.97;;;12.22;79.74
29247;BME280;16272;48.188;9.964;2023-04-23T06:20:18;95301.56;;;12.38;79.03
29247;BME280;16272;48.188;9.964;2023-04-23T06:22:44;95304.88;;;12.40;79.51
29247;BME280;16272;48.188;9.964;2023-04-23T06:25:09;95305.41;;;12.27;78.49
29247;BME280;16272;48.188;9.964;2023-04-23T06:27:34;95304.41;;;12.60;78.34
29247;BME280;16272;48.188;9.964;2023-04-23T06:30:00;95297.53;;;12.65;77.75
29247;BME280;16272;48.188;9.964;2023-04-23T06:32:25;95292.16;;;12.97;76.81
29247;BME280;16272;48.188;9.964;2023-04-23T06:34:54;95292.94;;;13.05;77.03
29247;BME280;16272;48.188;9.964;2023-04-23T06:37:20;95294.00;;;12.96;76.67
29247;BME280;16272;48.188;9.964;2023-04-23T06:39:45;95286.69;;;12.90;76.91
29247;BME280;16272;48.188;9.964;2023-04-23T06:42:10;95282.25;;;13.05;76.25
29247;BME280;16272;48.188;9.964;2023-04-23T06:44:36;95286.25;;;13.24;76.70
29247;BME280;16272;48.188;9.964;2023-04-23T06:47:08;95284.19;;;13.12;77.40
29247;BME280;16272;48.188;9.964;2023-04-23T06:49:33;95283.94;;;13.45;76.44
29247;BME280;16272;48.188;9.964;2023-04-23T06:51:59;95278.22;;;13.10;77.09
29247;BME280;16272;48.188;9.964;2023-04-23T06:54:25;95277.25;;;13.26;76.16
29247;BME280;16272;48.188;9.964;2023-04-23T06:56:50;95273.47;;;13.20;75.54
29247;BME280;16272;48.188;9.964;2023-04-23T06:59:16;95272.88;;;13.10;76.47
29247;BME280;16272;48.188;9.964;2023-04-23T07:01:41;95273.09;;;13.23;76.12
29247;BME280;16272;48.188;9.964;2023-04-23T07:04:07;95279.69;;;13.35;76.29
29247;BME280;16272;48.188;9.964;2023-04-23T07:06:32;95282.97;;;12.99;77.05
29247;BME280;16272;48.188;9.964;2023-04-23T07:08:58;95281.47;;;13.20;76.89
29247;BME280;16272;48.188;9.964;2023-04-23T07:11:33;95274.72;;;13.32;75.26
29247;BME280;16272;48.188;9.964;2023-04-23T07:14:03;95260.25;;;13.03;75.56
29247;BME280;16272;48.188;9.964;2023-04-23T07:16:29;95263.97;;;13.40;76.27
29247;BME280;16272;48.188;9.964;2023-04-23T07:19:03;95270.13;;;13.41;76.70
29247;BME280;16272;48.188;9.964;2023-04-23T07:21:29;95265.28;;;13.59;76.19
29247;BME280;16272;48.188;9.964;2023-04-23T07:23:57;95260.38;;;13.33;75.41
29247;BME280;16272;48.188;9.964;2023-04-23T07:26:31;95265.00;;;13.31;75.58
29247;BME280;16272;48.188;9.964;2023-04-23T07:29:12;95257.72;;;13.33;74.05
29247;BME280;16272;48.188;9.964;2023-04-23T07:31:38;95255.09;;;13.25;74.18
29247;BME280;16272;48.188;9.964;2023-04-23T07:34:05;95250.56;;;13.26;74.89
29247;BME280;16272;48.188;9.964;2023-04-23T07:36:31;95249.13;;;13.38;73.85
29247;BME280;16272;48.188;9.964;2023-04-23T07:38:56;95243.25;;;13.57;74.50
29247;BME280;16272;48.188;9.964;2023-04-23T07:41:21;95251.38;;;13.64;74.84
29247;BME280;16272;48.188;9.964;2023-04-23T07:43:48;95236.88;;;14.03;73.67
29247;BME280;16272;48.188;9.964;2023-04-23T07:46:13;95235.06;;;14.40;74.17
29247;BME280;16272;48.188;9.964;2023-04-23T07:48:39;95240.00;;;14.22;72.92
29247;BME280;16272;48.188;9.964;2023-04-23T07:51:04;95238.63;;;14.47;72.62
29247;BME280;16272;48.188;9.964;2023-04-23T07:53:30;95235.22;;;14.75;72.67
29247;BME280;16272;48.188;9.964;2023-04-23T07:55:56;95240.31;;;14.92;70.99
29247;BME280;16272;48.188;9.964;2023-04-23T07:58:23;95245.72;;;15.55;73.26
29247;BME280;16272;48.188;9.964;2023-04-23T08:00:49;95235.69;;;15.63;72.65
29247;BME280;16272;48.188;9.964;2023-04-23T08:03:14;95238.47;;;15.49;70.87
29247;BME280;16272;48.188;9.964;2023-04-23T08:05:40;95241.31;;;15.40;71.40
29247;BME280;16272;48.188;9.964;2023-04-23T08:08:06;95232.34;;;15.90;69.33
29247;BME280;16272;48.188;9.964;2023-04-23T08:10:32;95222.91;;;15.94;69.40
29247;BME280;16272;48.188;9.964;2023-04-23T08:12:58;95216.75;;;16.07;70.61
29247;BME280;16272;48.188;9.964;2023-04-23T08:15:23;95219.41;;;15.58;68.04
29247;BME280;16272;48.188;9.964;2023-04-23T08:17:49;95210.34;;;15.59;67.31
29247;BME280;16272;48.188;9.964;2023-04-23T08:20:22;95219.56;;;15.50;67.45
29247;BME280;16272;48.188;9.964;2023-04-23T08:22:48;95215.50;;;15.61;68.26
29247;BME280;16272;48.188;9.964;2023-04-23T08:25:14;95217.50;;;15.52;68.44
29247;BME280;16272;48.188;9.964;2023-04-23T08:27:40;95219.44;;;15.65;67.28
29247;BME280;16272;48.188;9.964;2023-04-23T08:30:07;95217.84;;;16.19;67.42
29247;BME280;16272;48.188;9.964;2023-04-23T08:32:33;95221.25;;;15.93;67.62
29247;BME280;16272;48.188;9.964;2023-04-23T08:34:58;95224.97;;;15.63;67.05
29247;BME280;16272;48.188;9.964;2023-04-23T08:37:24;95228.31;;;15.72;67.41
29247;BME280;16272;48.188;9.964;2023-04-23T08:39:51;95222.91;;;15.94;65.67
29247;BME280;16272;48.188;9.964;2023-04-23T08:42:23;95216.75;;;16.00;67.23
29247;BME280;16272;48.188;9.964;2023-04-23T08:44:51;95218.00;;;16.04;66.10
29247;BME280;16272;48.188;9.964;2023-04-23T08:47:17;95221.16;;;16.21;62.67
29247;BME280;16272;48.188;9.964;2023-04-23T08:49:52;95213.84;;;15.60;64.89
29247;BME280;16272;48.188;9.964;2023-04-23T08:52:22;95209.25;;;15.82;64.77
29247;BME280;16272;48.188;9.964;2023-04-23T08:54:49;95211.00;;;16.10;63.26
29247;BME280;16272;48.188;9.964;2023-04-23T08:57:16;95206.81;;;16.62;65.05
29247;BME280;16272;48.188;9.964;2023-04-23T08:59:42;95194.06;;;16.64;63.63
29247;BME280;16272;48.188;9.964;2023-04-23T09:02:08;95206.00;;;15.93;61.54
29247;BME280;16272;48.188;9.964;2023-04-23T09:04:35;95202.84;;;16.31;65.19
29247;BME280;16272;48.188;9.964;2023-04-23T09:07:01;95208.91;;;15.63;61.75
29247;BME280;16272;48.188;9.964;2023-04-23T09:09:28;95196.88;;;16.43;64.56
29247;BME280;16272;48.188;9.964;2023-04-23T09:11:55;95192.75;;;16.27;64.08
29247;BME280;16272;48.188;9.964;2023-04-23T09:14:22;95195.44;;;16.33;63.68
29247;BME280;16272;48.188;9.964;2023-04-23T09:16:50;95194.22;;;15.81;62.46
29247;BME280;16272;48.188;9.964;2023-04-23T09:19:17;95194.84;;;15.83;64.60
29247;BME280;16272;48.188;9.964;2023-04-23T09:21:46;95182.97;;;15.99;60.90
29247;BME280;16272;48.188;9.964;2023-04-23T09:24:11;95174.59;;;16.22;64.27
29247;BME280;16272;48.188;9.964;2023-04-23T09:26:56;95172.72;;;15.33;63.94
29247;BME280;16272;48.188;9.964;2023-04-23T09:29:23;95175.38;;;16.09;61.54
29247;BME280;16272;48.188;9.964;2023-04-23T09:31:49;95165.38;;;16.71;61.37
29247;BME280;16272;48.188;9.964;2023-04-23T09:34:19;95159.81;;;16.73;62.22
29247;BME280;16272;48.188;9.964;2023-04-23T09:36:46;95164.13;;;16.61;61.46
29247;BME280;16272;48.188;9.964;2023-04-23T09:39:15;95152.19;;;16.63;61.54
29247;BME280;16272;48.188;9.964;2023-04-23T09:41:41;95163.69;;;16.44;63.57
29247;BME280;16272;48.188;9.964;2023-04-23T09:44:06;95156.50;;;18.03;58.16
29247;BME280;16272;48.188;9.964;2023-04-23T09:46:44;95142.28;;;18.66;51.76
29247;BME280;16272;48.188;9.964;2023-04-23T09:49:12;95151.06;;;18.16;58.25
29247;BME280;16272;48.188;9.964;2023-04-23T09:51:45;95148.63;;;17.36;55.00
29247;BME280;16272;48.188;9.964;2023-04-23T09:54:24;95152.34;;;18.14;58.00
29247;BME280;16272;48.188;9.964;2023-04-23T09:56:52;95143.34;;;17.81;52.09
29247;BME280;16272;48.188;9.964;2023-04-23T09:59:24;95138.16;;;18.64;53.12
29247;BME280;16272;48.188;9.964;2023-04-23T10:01:50;95130.88;;;19.21;53.27
29247;BME280;16272;48.188;9.964;2023-04-23T10:04:17;95132.28;;;18.48;51.75
29247;BME280;16272;48.188;9.964;2023-04-23T10:06:44;95124.00;;;19.25;46.06
29247;BME280;16272;48.188;9.964;2023-04-23T10:09:10;95129.81;;;19.04;52.46
29247;BME280;16272;48.188;9.964;2023-04-23T10:11:36;95121.44;;;19.12;56.97
29247;BME280;16272;48.188;9.964;2023-04-23T10:14:01;95120.25;;;19.26;57.01
29247;BME280;16272;48.188;9.964;2023-04-23T10:16:31;95117.69;;;18.63;55.66
29247;BME280;16272;48.188;9.964;2023-04-23T10:18:58;95118.47;;;19.39;52.71
29247;BME280;16272;48.188;9.964;2023-04-23T10:21:43;95109.44;;;19.52;49.78
29247;BME280;16272;48.188;9.964;2023-04-23T10:24:11;95113.53;;;19.54;53.38
29247;BME280;16272;48.188;9.964;2023-04-23T10:26:37;95103.63;;;18.35;52.69
29247;BME280;16272;48.188;9.964;2023-04-23T10:29:07;95107.00;;;18.49;53.46
29247;BME280;16272;48.188;9.964;2023-04-23T10:31:39;95095.94;;;20.07;50.29
29247;BME280;16272;48.188;9.964;2023-04-23T10:34:16;95103.41;;;20.35;52.73
29247;BME280;16272;48.188;9.964;2023-04-23T10:36:41;95104.63;;;20.09;55.82
29247;BME280;16272;48.188;9.964;2023-04-23T10:39:07;95101.06;;;19.60;54.29
29247;BME280;16272;48.188;9.964;2023-04-23T10:41:36;95099.47;;;19.52;57.03
29247;BME280;16272;48.188;9.964;2023-04-23T10:44:03;95098.69;;;19.08;51.20
29247;BME280;16272;48.188;9.964;2023-04-23T10:46:30;95086.31;;;18.25;53.57
29247;BME280;16272;48.188;9.964;2023-04-23T10:49:12;95089.25;;;18.99;56.39
29247;BME280;16272;48.188;9.964;2023-04-23T10:51:47;95072.53;;;20.19;57.89
29247;BME280;16272;48.188;9.964;2023-04-23T10:54:14;95083.28;;;20.50;54.39
29247;BME280;16272;48.188;9.964;2023-04-23T10:56:57;95075.44;;;20.60;49.76
29247;BME280;16272;48.188;9.964;2023-04-23T10:59:23;95067.84;;;20.81;45.39
29247;BME280;16272;48.188;9.964;2023-04-23T11:01:49;95063.19;;;20.88;47.03
29247;BME280;16272;48.188;9.964;2023-04-23T11:04:28;95065.50;;;21.43;47.10
29247;BME280;16272;48.188;9.964;2023-04-23T11:07:05;95062.09;;;20.23;51.28
29247;BME280;16272;48.188;9.964;2023-04-23T11:09:40;95061.66;;;20.92;54.83
29247;BME280;16272;48.188;9.964;2023-04-23T11:12:10;95054.06;;;21.65;45.63
29247;BME280;16272;48.188;9.964;2023-04-23T11:14:46;95054.19;;;20.52;50.24
29247;BME280;16272;48.188;9.964;2023-04-23T11:17:13;95049.75;;;21.40;49.27
29247;BME280;16272;48.188;9.964;2023-04-23T11:19:40;95044.66;;;21.67;43.44
29247;BME280;16272;48.188;9.964;2023-04-23T11:22:12;95049.50;;;20.59;49.72
29247;BME280;16272;48.188;9.964;2023-04-23T11:24:41;95056.09;;;19.42;48.17
29247;BME280;16272;48.188;9.964;2023-04-23T11:27:17;95051.00;;;19.52;52.57
29247;BME280;16272;48.188;9.964;2023-04-23T11:29:44;95047.41;;;19.77;50.62
29247;BME280;16272;48.188;9.964;2023-04-23T11:32:14;95045.78;;;19.76;50.28
29247;BME280;16272;48.188;9.964;2023-04-23T11:34:43;95042.94;;;19.34;54.34
29247;BME280;16272;48.188;9.964;2023-04-23T11:37:10;95032.47;;;19.44;49.03
29247;BME280;16272;48.188;9.964;2023-04-23T11:39:37;95032.41;;;20.11;50.67
29247;BME280;16272;48.188;9.964;2023-04-23T11:42:02;95039.25;;;19.28;54.14
29247;BME280;16272;48.188;9.964;2023-04-23T11:44:30;95027.59;;;20.01;49.26
29247;BME280;16272;48.188;9.964;2023-04-23T11:47:00;95029.59;;;20.84;52.56
29247;BME280;16272;48.188;9.964;2023-04-23T11:49:26;95026.78;;;20.79;50.36
29247;BME280;16272;48.188;9.964;2023-04-23T11:51:53;95019.03;;;20.47;51.42
29247;BME280;16272;48.188;9.964;2023-04-23T11:54:24;95023.19;;;20.19;47.85
29247;BME280;16272;48.188;9.964;2023-04-23T11:56:52;95017.53;;;20.09;49.72
29247;BME280;16272;48.188;9.964;2023-04-23T11:59:18;95005.53;;;20.35;50.10
29247;BME280;16272;48.188;9.964;2023-04-23T12:01:54;95003.28;;;20.32;51.48
29247;BME280;16272;48.188;9.964;2023-04-23T12:04:21;95004.41;;;20.66;50.75
29247;BME280;16272;48.188;9.964;2023-04-23T12:06:48;95000.63;;;20.01;48.77
29247;BME280;16272;48.188;9.964;2023-04-23T12:09:16;95000.63;;;20.67;50.82
29247;BME280;16272;48.188;9.964;2023-04-23T12:11:42;94995.97;;;21.51;48.38
29247;BME280;16272;48.188;9.964;2023-04-23T12:14:09;94986.75;;;20.40;44.09
29247;BME280;16272;48.188;9.964;2023-04-23T12:16:41;94981.94;;;20.30;43.65
29247;BME280;16272;48.188;9.964;2023-04-23T12:19:08;94977.78;;;19.74;46.98
29247;BME280;16272;48.188;9.964;2023-04-23T12:21:34;94977.78;;;19.74;47.48
29247;BME280;16272;48.188;9.964;2023-04-23T12:24:02;94971.06;;;20.37;48.48
29247;BME280;16272;48.188;9.964;2023-04-23T12:26:37;94959.19;;;20.26;46.02
29247;BME280;16272;48.188;9.964;2023-04-23T12:29:02;94959.91;;;21.04;44.27
29247;BME280;16272;48.188;9.964;2023-04-23T12:31:28;94957.25;;;21.21;45.04
29247;BME280;16272;48.188;9.964;2023-04-23T12:34:08;94965.22;;;21.28;46.41
29247;BME280;16272;48.188;9.964;2023-04-23T12:36:35;94960.84;;;20.27;46.83
29247;BME280;16272;48.188;9.964;2023-04-23T12:39:21;94964.56;;;20.26;45.28
29247;BME280;16272;48.188;9.964;2023-04-23T12:41:58;94960.84;;;20.51;46.01
29247;BME280;16272;48.188;9.964;2023-04-23T12:44:33;94959.63;;;19.99;47.66
29247;BME280;16272;48.188;9.964;2023-04-23T12:47:01;94953.22;;;20.36;51.39
29247;BME280;16272;48.188;9.964;2023-04-23T12:49:32;94953.56;;;20.16;48.02
29247;BME280;16272;48.188;9.964;2023-04-23T12:51:59;94954.97;;;20.54;50.75
29247;BME280;16272;48.188;9.964;2023-04-23T12:54:26;94946.44;;;20.33;45.02
29247;BME280;16272;48.188;9.964;2023-04-23T12:56:54;94950.78;;;20.58;46.67
29247;BME280;16272;48.188;9.964;2023-04-23T12:59:20;94946.41;;;20.57;46.51
29247;BME280;16272;48.188;9.964;2023-04-23T13:01:50;94940.69;;;20.65;45.76